Terminal Aerodrome Forecast
Issued by NWS Duluth, MN

Home | Current Version | Previous Version | Text Only | Print | Product List | Glossary On
Versions: 1 2 3 4 5 6 7 8 9 10 11 12 13 14 15 16 17 18 19 20 21 22 23 24 25 26 27 28
000
FTUS43 KDLH 131500 AAA
TAFINL
TAF AMD
KINL 131519Z 1315/1412 28015G25KT P6SM VCSH SCT035 BKN050
      TEMPO 1316/1318 30015G25KT BKN035
     FM131800 31012G24KT P6SM -SHRA SCT020 OVC040
     FM140200 31008KT P6SM -SHRA SCT015 OVC025
     FM140900 33010KT 6SM -SHRA BR SCT010 OVC018=

USA.gov is the U.S. government's official web portal to all federal, state and local government web resources and services.